createdAt,value
2023-10-06T00:00:20.721Z,10.62
2023-10-06T00:01:13.898Z,10.61
2023-10-06T00:02:08.745Z,10.63
2023-10-06T00:02:59.841Z,10.56
2023-10-06T00:03:58.523Z,10.58
2023-10-06T00:04:53.074Z,10.57
2023-10-06T00:05:51.034Z,10.53
2023-10-06T00:06:44.100Z,10.49
2023-10-06T00:07:34.834Z,10.45
2023-10-06T00:08:34.183Z,10.42
2023-10-06T00:09:29.904Z,10.40
2023-10-06T00:10:27.902Z,10.55
2023-10-06T00:11:30.316Z,10.51
2023-10-06T00:12:21.652Z,10.46
2023-10-06T00:13:30.655Z,10.48
2023-10-06T00:14:40.147Z,10.45
2023-10-06T00:15:41.155Z,10.50
2023-10-06T00:16:40.339Z,10.57
2023-10-06T00:17:34.973Z,10.53
2023-10-06T00:18:28.857Z,10.54
2023-10-06T00:19:32.486Z,10.61
2023-10-06T00:20:27.560Z,10.64
2023-10-06T00:21:22.662Z,10.68
2023-10-06T00:22:19.442Z,10.63
2023-10-06T00:23:15.520Z,10.59
2023-10-06T00:24:06.944Z,10.61
2023-10-06T00:25:00.796Z,10.63
2023-10-06T00:25:53.940Z,10.61
2023-10-06T00:26:45.150Z,10.60
2023-10-06T00:27:39.387Z,10.48
2023-10-06T00:28:33.381Z,10.43
2023-10-06T00:29:24.655Z,10.40
2023-10-06T00:30:21.012Z,10.49
2023-10-06T00:31:14.143Z,10.42
2023-10-06T00:32:24.312Z,10.46
2023-10-06T00:33:19.036Z,10.43
2023-10-06T00:34:12.182Z,10.43
2023-10-06T00:35:23.948Z,10.45
2023-10-06T00:36:15.237Z,10.50
2023-10-06T00:37:12.887Z,10.52
2023-10-06T00:38:18.758Z,10.40
2023-10-06T00:39:13.966Z,10.36
2023-10-06T00:40:12.118Z,10.47
2023-10-06T00:41:07.789Z,10.42
2023-10-06T00:42:05.600Z,10.38
2023-10-06T00:43:01.080Z,10.41
2023-10-06T00:43:52.120Z,10.47
2023-10-06T00:44:46.500Z,10.45
2023-10-06T00:45:40.627Z,10.45
2023-10-06T00:46:31.418Z,10.33
2023-10-06T00:47:22.674Z,10.37
2023-10-06T00:48:16.627Z,10.30
2023-10-06T00:49:08.769Z,10.32
2023-10-06T00:50:00.427Z,10.38
2023-10-06T00:50:51.488Z,10.34
2023-10-06T00:51:42.915Z,10.31
2023-10-06T00:52:35.453Z,10.26
2023-10-06T00:53:36.980Z,10.33
2023-10-06T00:54:28.360Z,10.36
2023-10-06T00:55:20.486Z,10.37
2023-10-06T00:56:12.398Z,10.34
2023-10-06T00:57:09.926Z,10.30
2023-10-06T00:58:02.316Z,10.29
2023-10-06T00:58:53.620Z,10.30
2023-10-06T00:59:44.786Z,10.29
2023-10-06T01:00:38.406Z,10.33
2023-10-06T01:01:29.122Z,10.35
2023-10-06T01:02:19.881Z,10.36
2023-10-06T01:03:15.768Z,10.33
2023-10-06T01:04:09.780Z,10.35
2023-10-06T01:05:01.570Z,10.31
2023-10-06T01:05:59.196Z,10.26
2023-10-06T01:06:49.998Z,10.23
2023-10-06T01:07:41.106Z,10.24
2023-10-06T01:08:31.989Z,10.28
2023-10-06T01:09:34.355Z,10.35
2023-10-06T01:10:35.888Z,10.33
2023-10-06T01:11:29.872Z,10.32
2023-10-06T01:12:21.074Z,10.34
2023-10-06T01:13:15.580Z,10.29
2023-10-06T01:14:06.607Z,10.26
2023-10-06T01:15:06.793Z,10.27
2023-10-06T01:15:58.066Z,10.25
2023-10-06T01:16:53.062Z,10.28
2023-10-06T01:17:45.132Z,10.22
2023-10-06T01:18:36.361Z,10.20
2023-10-06T01:19:34.357Z,10.19
2023-10-06T01:20:51.415Z,10.20
2023-10-06T01:21:48.825Z,10.14
2023-10-06T01:22:45.957Z,10.21
2023-10-06T01:23:36.707Z,10.12
2023-10-06T01:24:29.226Z,10.06
2023-10-06T01:25:23.580Z,10.11
2023-10-06T01:26:14.872Z,10.15
2023-10-06T01:27:08.949Z,10.13
2023-10-06T01:28:04.664Z,10.05
2023-10-06T01:28:58.792Z,10.12
2023-10-06T01:29:54.333Z,10.05
2023-10-06T01:30:45.628Z,10.13
2023-10-06T01:31:41.345Z,10.11
2023-10-06T01:32:32.132Z,10.05
2023-10-06T01:33:23.132Z,10.06
2023-10-06T01:34:13.992Z,10.05
2023-10-06T01:35:06.329Z,10.10
2023-10-06T01:35:56.880Z,10.09
2023-10-06T01:36:53.384Z,10.06
2023-10-06T01:37:46.302Z,10.07
2023-10-06T01:38:37.961Z,10.13
2023-10-06T01:39:32.754Z,10.09
2023-10-06T01:40:23.540Z,10.11
2023-10-06T01:41:14.537Z,10.09
2023-10-06T01:42:08.602Z,10.01
2023-10-06T01:42:59.517Z,10.00
2023-10-06T01:43:50.601Z,9.98
2023-10-06T01:44:41.321Z,9.97
2023-10-06T01:45:32.456Z,9.90
2023-10-06T01:46:25.614Z,9.93
2023-10-06T01:47:19.661Z,9.93
2023-10-06T01:48:14.322Z,9.98
2023-10-06T01:49:05.586Z,9.94
2023-10-06T01:49:58.868Z,9.91
2023-10-06T01:50:50.858Z,9.90
2023-10-06T01:51:43.976Z,9.86
2023-10-06T01:52:41.268Z,9.84
2023-10-06T01:53:35.075Z,9.85
2023-10-06T01:54:29.058Z,9.84
2023-10-06T01:55:23.550Z,9.88
2023-10-06T01:56:15.283Z,9.91
2023-10-06T01:57:11.761Z,9.92
2023-10-06T01:58:04.802Z,9.87
2023-10-06T01:58:56.385Z,9.87
2023-10-06T01:59:47.618Z,9.82
2023-10-06T02:00:39.203Z,9.87
2023-10-06T02:01:30.586Z,9.86
2023-10-06T02:02:25.293Z,9.81
2023-10-06T02:03:22.206Z,9.76
2023-10-06T02:04:15.417Z,9.73
2023-10-06T02:05:08.715Z,9.71
2023-10-06T02:06:01.170Z,9.68
2023-10-06T02:06:54.709Z,9.76
2023-10-06T02:07:46.043Z,9.77
2023-10-06T02:08:36.845Z,9.72
2023-10-06T02:09:29.337Z,9.71
2023-10-06T02:10:20.339Z,9.63
2023-10-06T02:11:13.667Z,9.68
2023-10-06T02:12:05.037Z,9.66
2023-10-06T02:12:56.580Z,9.60
2023-10-06T02:13:47.596Z,9.64
2023-10-06T02:14:38.364Z,9.62
2023-10-06T02:15:29.256Z,9.66
2023-10-06T02:16:24.333Z,9.62
2023-10-06T02:17:15.656Z,9.52
2023-10-06T02:18:13.580Z,9.50
2023-10-06T02:19:10.707Z,9.55
2023-10-06T02:20:01.372Z,9.59
2023-10-06T02:20:52.323Z,9.61
2023-10-06T02:21:52.999Z,9.59
2023-10-06T02:22:43.669Z,9.52
2023-10-06T02:23:38.522Z,9.60
2023-10-06T02:24:29.430Z,9.65
2023-10-06T02:25:21.531Z,9.59
2023-10-06T02:26:14.940Z,9.52
2023-10-06T02:27:05.998Z,9.56
2023-10-06T02:27:57.896Z,9.56
2023-10-06T02:28:52.111Z,9.52
2023-10-06T02:29:44.736Z,9.50
2023-10-06T02:30:38.703Z,9.45
2023-10-06T02:31:29.727Z,9.52
2023-10-06T02:32:22.274Z,9.55
2023-10-06T02:33:13.023Z,9.49
2023-10-06T02:34:13.620Z,9.40
2023-10-06T02:35:05.141Z,9.48
2023-10-06T02:35:57.276Z,9.54
2023-10-06T02:36:48.057Z,9.57
2023-10-06T02:37:39.849Z,9.61
2023-10-06T02:38:42.409Z,9.60
2023-10-06T02:39:39.108Z,9.54
2023-10-06T02:40:45.058Z,9.45
2023-10-06T02:41:39.885Z,9.50
2023-10-06T02:42:34.769Z,9.49
2023-10-06T02:43:28.302Z,9.47
2023-10-06T02:44:24.001Z,9.38
2023-10-06T02:45:21.618Z,9.39
2023-10-06T02:46:12.378Z,9.35
2023-10-06T02:47:05.674Z,9.39
2023-10-06T02:47:59.985Z,9.30
2023-10-06T02:48:51.571Z,9.38
2023-10-06T02:49:49.044Z,9.33
2023-10-06T02:50:45.352Z,9.33
2023-10-06T02:51:48.471Z,9.41
2023-10-06T02:52:43.547Z,9.41
2023-10-06T02:53:36.443Z,9.36
2023-10-06T02:54:31.070Z,9.29
2023-10-06T02:55:22.460Z,9.31
2023-10-06T02:56:17.243Z,9.29
2023-10-06T02:57:07.984Z,9.30
2023-10-06T02:57:59.319Z,9.35
2023-10-06T02:58:52.086Z,9.35
2023-10-06T02:59:44.335Z,9.34
2023-10-06T03:00:37.187Z,9.36
2023-10-06T03:01:27.788Z,9.31
2023-10-06T03:02:18.549Z,9.34
2023-10-06T03:03:19.495Z,9.35
2023-10-06T03:04:12.170Z,9.35
2023-10-06T03:05:11.765Z,9.30
2023-10-06T03:06:08.657Z,9.33
2023-10-06T03:07:00.094Z,9.29
2023-10-06T03:07:51.974Z,9.29
2023-10-06T03:08:43.312Z,9.28
2023-10-06T03:09:44.925Z,9.30
2023-10-06T03:10:44.404Z,9.27
2023-10-06T03:11:37.903Z,9.25
2023-10-06T03:12:32.897Z,9.19
2023-10-06T03:13:34.374Z,9.19
2023-10-06T03:14:38.712Z,9.24
2023-10-06T03:15:39.617Z,9.28
2023-10-06T03:16:33.591Z,9.26
2023-10-06T03:17:24.536Z,9.20
2023-10-06T03:18:17.173Z,9.16
2023-10-06T03:19:08.627Z,9.16
2023-10-06T03:20:12.971Z,9.17
2023-10-06T03:21:13.577Z,9.21
2023-10-06T03:22:07.832Z,9.25
2023-10-06T03:22:58.939Z,9.27
2023-10-06T03:23:58.902Z,9.17
2023-10-06T03:24:59.856Z,9.17
2023-10-06T03:25:57.380Z,9.21
2023-10-06T03:26:49.008Z,9.22
2023-10-06T03:27:41.483Z,9.18
2023-10-06T03:28:39.282Z,9.08
2023-10-06T03:29:45.825Z,9.15
2023-10-06T03:30:36.716Z,9.04
2023-10-06T03:31:41.223Z,9.09
2023-10-06T03:32:40.479Z,9.01
2023-10-06T03:33:33.298Z,9.07
2023-10-06T03:34:24.593Z,9.03
2023-10-06T03:35:26.011Z,9.07
2023-10-06T03:36:27.507Z,9.13
2023-10-06T03:37:35.554Z,9.19
2023-10-06T03:38:27.877Z,9.20
2023-10-06T03:39:29.470Z,9.18
2023-10-06T03:40:30.712Z,9.20
2023-10-06T03:41:26.101Z,9.22
2023-10-06T03:42:21.328Z,9.16
2023-10-06T03:43:15.671Z,9.19
2023-10-06T03:44:06.912Z,9.14
2023-10-06T03:45:13.625Z,9.10
2023-10-06T03:46:04.588Z,9.06
2023-10-06T03:46:56.668Z,9.09
2023-10-06T03:47:49.985Z,9.08
2023-10-06T03:48:40.790Z,8.99
2023-10-06T03:49:34.980Z,9.00
2023-10-06T03:50:28.329Z,9.08
2023-10-06T03:51:20.295Z,9.09
2023-10-06T03:52:11.293Z,9.07
2023-10-06T03:53:02.457Z,9.04
2023-10-06T03:53:57.325Z,9.11
2023-10-06T03:54:49.995Z,9.10
2023-10-06T03:55:41.556Z,9.08
2023-10-06T03:56:33.214Z,9.12
2023-10-06T03:57:24.199Z,9.08
2023-10-06T03:58:17.763Z,9.13
2023-10-06T03:59:16.220Z,9.08
2023-10-06T04:00:09.228Z,9.01
2023-10-06T04:01:10.103Z,9.10
2023-10-06T04:02:04.127Z,9.02
2023-10-06T04:02:55.057Z,9.07
2023-10-06T04:03:45.811Z,9.06
2023-10-06T04:04:40.232Z,9.10
2023-10-06T04:05:33.195Z,9.08
2023-10-06T04:06:24.549Z,9.09
2023-10-06T04:07:15.470Z,9.10
2023-10-06T04:08:18.227Z,9.06
2023-10-06T04:09:11.012Z,9.02
2023-10-06T04:10:08.872Z,9.09
2023-10-06T04:10:59.922Z,9.03
2023-10-06T04:11:50.817Z,9.07
2023-10-06T04:12:41.710Z,9.05
2023-10-06T04:13:32.917Z,9.06
2023-10-06T04:14:23.742Z,9.06
2023-10-06T04:15:15.588Z,9.10
2023-10-06T04:16:06.436Z,9.05
2023-10-06T04:16:59.369Z,9.04
2023-10-06T04:17:50.042Z,9.07
2023-10-06T04:18:41.434Z,9.08
2023-10-06T04:19:32.288Z,9.08
2023-10-06T04:20:23.250Z,9.03
2023-10-06T04:21:14.075Z,9.05
2023-10-06T04:22:05.162Z,9.02
2023-10-06T04:22:56.177Z,8.94
2023-10-06T04:23:47.195Z,8.93
2023-10-06T04:24:37.988Z,8.99
2023-10-06T04:25:29.658Z,9.03
2023-10-06T04:26:20.775Z,9.05
2023-10-06T04:27:11.742Z,8.95
2023-10-06T04:28:02.487Z,8.92
2023-10-06T04:28:54.883Z,8.97
2023-10-06T04:29:45.909Z,8.99
2023-10-06T04:30:37.300Z,8.94
2023-10-06T04:31:28.514Z,8.89
2023-10-06T04:32:19.415Z,9.01
2023-10-06T04:33:12.192Z,8.99
2023-10-06T04:34:02.971Z,8.95
2023-10-06T04:34:53.963Z,8.89
2023-10-06T04:35:53.770Z,8.96
2023-10-06T04:36:44.993Z,8.90
2023-10-06T04:37:37.021Z,8.94
2023-10-06T04:38:28.459Z,8.95
2023-10-06T04:39:21.139Z,8.97
2023-10-06T04:40:18.011Z,8.89
2023-10-06T04:41:10.262Z,8.88
2023-10-06T04:42:01.560Z,8.91
2023-10-06T04:42:52.644Z,8.97
2023-10-06T04:43:46.004Z,8.93
2023-10-06T04:44:37.417Z,8.82
2023-10-06T04:45:32.728Z,8.82
2023-10-06T04:46:23.595Z,8.91
2023-10-06T04:47:14.774Z,8.90
2023-10-06T04:48:09.344Z,8.90
2023-10-06T04:49:00.529Z,8.94
2023-10-06T04:49:54.002Z,8.98
2023-10-06T04:50:44.686Z,8.94
2023-10-06T04:51:35.633Z,8.97
2023-10-06T04:52:28.827Z,8.98
2023-10-06T04:53:19.355Z,8.98
2023-10-06T04:54:10.286Z,8.93
2023-10-06T04:55:04.231Z,8.94
2023-10-06T04:55:55.253Z,8.98
2023-10-06T04:56:46.009Z,9.04
2023-10-06T04:57:36.934Z,8.99
2023-10-06T04:58:30.271Z,8.96
2023-10-06T04:59:21.177Z,8.95
2023-10-06T05:00:20.252Z,8.92
2023-10-06T05:01:12.912Z,8.90
2023-10-06T05:02:04.161Z,8.90
2023-10-06T05:02:54.795Z,8.93
2023-10-06T05:03:46.270Z,8.91
2023-10-06T05:04:37.374Z,8.91
2023-10-06T05:05:28.153Z,8.91
2023-10-06T05:06:19.688Z,8.91
2023-10-06T05:07:10.816Z,8.91
2023-10-06T05:08:03.199Z,8.91
2023-10-06T05:08:54.073Z,8.93
2023-10-06T05:09:44.967Z,8.88
2023-10-06T05:10:35.756Z,8.91
2023-10-06T05:11:26.573Z,8.94
2023-10-06T05:12:20.097Z,8.96
2023-10-06T05:13:11.904Z,8.96
2023-10-06T05:14:03.219Z,8.95
2023-10-06T05:14:53.912Z,8.94
2023-10-06T05:15:44.769Z,8.90
2023-10-06T05:16:36.242Z,8.97
2023-10-06T05:17:28.396Z,8.93
2023-10-06T05:18:19.345Z,8.94
2023-10-06T05:19:10.346Z,8.90
2023-10-06T05:20:02.066Z,8.86
2023-10-06T05:20:53.371Z,8.86
2023-10-06T05:21:44.023Z,8.87
2023-10-06T05:22:34.915Z,8.89
2023-10-06T05:23:27.983Z,8.85
2023-10-06T05:24:18.757Z,8.82
2023-10-06T05:25:14.352Z,8.89
2023-10-06T05:26:08.869Z,8.88
2023-10-06T05:26:59.821Z,8.93
2023-10-06T05:27:51.835Z,8.94
2023-10-06T05:28:44.438Z,8.95
2023-10-06T05:29:37.190Z,8.94
2023-10-06T05:30:29.206Z,8.96
2023-10-06T05:31:19.815Z,8.96
2023-10-06T05:32:11.671Z,8.99
2023-10-06T05:33:02.827Z,8.96
2023-10-06T05:33:53.580Z,9.03
2023-10-06T05:34:44.964Z,9.01
2023-10-06T05:35:40.553Z,9.04
2023-10-06T05:36:32.496Z,9.05
2023-10-06T05:37:23.221Z,9.04
2023-10-06T05:38:16.973Z,9.06
2023-10-06T05:39:12.845Z,9.04
2023-10-06T05:40:04.894Z,9.03
2023-10-06T05:40:55.758Z,9.06
2023-10-06T05:41:48.214Z,9.09
2023-10-06T05:42:42.103Z,9.10
2023-10-06T05:43:32.786Z,9.11
2023-10-06T05:44:25.499Z,9.09
2023-10-06T05:45:19.972Z,9.10
2023-10-06T05:46:11.256Z,9.09
2023-10-06T05:47:02.697Z,9.05
2023-10-06T05:47:56.144Z,9.07
2023-10-06T05:48:47.477Z,9.18
2023-10-06T05:49:40.130Z,9.36
2023-10-06T05:50:31.174Z,9.52
2023-10-06T05:51:24.393Z,9.70
2023-10-06T05:52:15.035Z,9.97
2023-10-06T05:53:07.040Z,10.19
2023-10-06T05:53:57.611Z,10.29
2023-10-06T05:54:48.148Z,10.51
2023-10-06T05:55:42.490Z,10.73
2023-10-06T05:56:33.972Z,10.95
2023-10-06T05:57:24.793Z,11.17
2023-10-06T05:58:15.824Z,11.35
2023-10-06T05:59:06.712Z,11.65
2023-10-06T05:59:57.293Z,11.93
2023-10-06T06:00:57.550Z,12.10
2023-10-06T06:01:57.721Z,12.13
2023-10-06T06:02:49.280Z,12.24
2023-10-06T06:03:46.593Z,12.36
2023-10-06T06:04:39.733Z,12.65
2023-10-06T06:05:31.191Z,12.79
2023-10-06T06:06:25.974Z,12.49
2023-10-06T06:07:16.736Z,12.57
2023-10-06T06:08:10.072Z,12.73
2023-10-06T06:09:01.645Z,12.95
2023-10-06T06:09:52.228Z,12.99
2023-10-06T06:10:43.375Z,12.95
2023-10-06T06:11:34.643Z,12.95
2023-10-06T06:12:25.502Z,13.17
2023-10-06T06:13:20.140Z,13.23
2023-10-06T06:14:17.862Z,13.44
2023-10-06T06:15:10.063Z,13.58
2023-10-06T06:16:01.155Z,13.55
2023-10-06T06:16:51.893Z,13.44
2023-10-06T06:17:42.776Z,13.75
2023-10-06T06:18:35.208Z,14.01
2023-10-06T06:19:26.108Z,13.60
2023-10-06T06:20:19.635Z,13.68
2023-10-06T06:21:10.571Z,13.70
2023-10-06T06:22:06.893Z,13.72
2023-10-06T06:23:01.616Z,13.70
2023-10-06T06:23:52.344Z,13.89
2023-10-06T06:24:42.955Z,14.10
2023-10-06T06:25:38.930Z,14.37
2023-10-06T06:26:30.944Z,14.70
2023-10-06T06:27:23.845Z,14.75
2023-10-06T06:28:15.658Z,15.03
2023-10-06T06:29:09.749Z,15.50
2023-10-06T06:30:00.715Z,15.34
2023-10-06T06:30:51.997Z,15.44
2023-10-06T06:31:44.609Z,15.62
2023-10-06T06:32:36.507Z,15.62
2023-10-06T06:33:27.802Z,15.45
2023-10-06T06:34:18.469Z,15.45
2023-10-06T06:35:14.871Z,15.74
2023-10-06T06:36:06.621Z,15.96
2023-10-06T06:36:57.548Z,16.02
2023-10-06T06:37:52.465Z,16.10
2023-10-06T06:38:43.599Z,16.18
2023-10-06T06:39:35.465Z,16.54
2023-10-06T06:40:27.443Z,16.34
2023-10-06T06:41:18.048Z,16.37
2023-10-06T06:42:09.448Z,16.04
2023-10-06T06:43:04.378Z,15.88
2023-10-06T06:43:59.675Z,15.46
2023-10-06T06:44:52.228Z,15.19
2023-10-06T06:45:43.123Z,14.89
2023-10-06T06:46:34.097Z,14.68
2023-10-06T06:47:27.502Z,14.89
2023-10-06T06:48:20.988Z,15.16
2023-10-06T06:49:12.456Z,15.24
2023-10-06T06:50:04.037Z,15.19
2023-10-06T06:50:54.966Z,15.45
2023-10-06T06:51:45.722Z,15.69
2023-10-06T06:52:37.377Z,16.00
2023-10-06T06:53:28.171Z,16.45
2023-10-06T06:54:20.923Z,16.24
2023-10-06T06:55:15.704Z,16.15
2023-10-06T06:56:07.477Z,16.58
2023-10-06T06:56:58.226Z,17.01
2023-10-06T06:57:56.208Z,16.83
2023-10-06T06:58:49.871Z,16.55
2023-10-06T06:59:41.017Z,16.42
2023-10-06T07:00:32.092Z,16.57
2023-10-06T07:01:23.030Z,16.57
2023-10-06T07:02:13.842Z,16.61
2023-10-06T07:03:05.232Z,16.69
2023-10-06T07:03:56.983Z,16.54
2023-10-06T07:04:48.490Z,16.65
2023-10-06T07:05:40.703Z,16.49
2023-10-06T07:06:34.095Z,16.29
2023-10-06T07:07:25.930Z,16.34
2023-10-06T07:08:16.766Z,16.26
2023-10-06T07:09:14.132Z,16.40
2023-10-06T07:10:07.850Z,16.73
2023-10-06T07:10:58.997Z,16.54
2023-10-06T07:11:50.965Z,16.55
2023-10-06T07:12:46.001Z,16.90
2023-10-06T07:13:37.557Z,16.77
2023-10-06T07:14:31.099Z,16.96
2023-10-06T07:15:22.749Z,17.01
2023-10-06T07:16:15.560Z,17.10
2023-10-06T07:17:07.082Z,17.31
2023-10-06T07:17:59.450Z,17.45
2023-10-06T07:18:50.275Z,17.50
2023-10-06T07:19:41.166Z,17.39
2023-10-06T07:20:32.189Z,17.13
2023-10-06T07:21:25.330Z,17.02
2023-10-06T07:22:16.456Z,17.19
2023-10-06T07:23:07.610Z,17.22
2023-10-06T07:23:58.842Z,17.42
2023-10-06T07:24:51.356Z,17.58
2023-10-06T07:25:42.594Z,17.22
2023-10-06T07:26:33.694Z,17.13
2023-10-06T07:27:25.157Z,17.06
2023-10-06T07:28:15.866Z,16.85
2023-10-06T07:29:07.129Z,17.17
2023-10-06T07:29:59.646Z,17.21
2023-10-06T07:30:51.392Z,16.96
2023-10-06T07:31:42.422Z,17.12
2023-10-06T07:32:33.636Z,17.19
2023-10-06T07:33:24.931Z,17.43
2023-10-06T07:34:15.860Z,17.38
2023-10-06T07:35:07.121Z,17.35
2023-10-06T07:35:58.983Z,17.51
2023-10-06T07:36:50.069Z,17.32
2023-10-06T07:37:45.251Z,17.21
2023-10-06T07:38:36.437Z,17.39
2023-10-06T07:39:27.543Z,17.44
2023-10-06T07:40:22.548Z,17.69
2023-10-06T07:41:20.928Z,17.85
2023-10-06T07:42:14.385Z,17.43
2023-10-06T07:43:06.404Z,17.54
2023-10-06T07:43:57.504Z,17.74
2023-10-06T07:44:48.749Z,17.70
2023-10-06T07:45:39.619Z,17.57
2023-10-06T07:46:33.162Z,17.53
2023-10-06T07:47:25.686Z,17.35
2023-10-06T07:48:16.589Z,17.14
2023-10-06T07:49:07.420Z,17.04
2023-10-06T07:49:58.452Z,17.20
2023-10-06T07:50:50.293Z,17.42
2023-10-06T07:51:41.096Z,17.43
2023-10-06T07:52:34.110Z,17.24
2023-10-06T07:53:25.109Z,17.35
2023-10-06T07:54:16.294Z,17.38
2023-10-06T07:55:10.898Z,17.41
2023-10-06T07:56:07.669Z,17.54
2023-10-06T07:56:58.863Z,17.41
2023-10-06T07:57:50.184Z,17.01
2023-10-06T07:58:45.027Z,16.94
2023-10-06T07:59:37.117Z,16.81
2023-10-06T08:00:31.340Z,16.73
2023-10-06T08:01:22.882Z,16.76
2023-10-06T08:02:14.746Z,16.72
2023-10-06T08:03:05.811Z,16.87
2023-10-06T08:03:56.670Z,16.73
2023-10-06T08:04:47.673Z,16.79
2023-10-06T08:05:39.318Z,16.82
2023-10-06T08:06:30.573Z,16.41
2023-10-06T08:07:27.615Z,16.56
2023-10-06T08:08:18.384Z,16.46
2023-10-06T08:09:11.668Z,16.51
2023-10-06T08:10:04.576Z,16.83
2023-10-06T08:10:55.708Z,16.50
2023-10-06T08:11:46.811Z,16.67
2023-10-06T08:12:37.508Z,16.89
2023-10-06T08:13:34.765Z,17.06
2023-10-06T08:14:26.203Z,16.98
2023-10-06T08:15:22.246Z,17.18
2023-10-06T08:16:13.911Z,17.23
2023-10-06T08:17:06.418Z,17.29
2023-10-06T08:17:57.480Z,17.22
2023-10-06T08:18:48.551Z,17.18
2023-10-06T08:19:39.406Z,17.38
2023-10-06T08:20:32.221Z,17.54
2023-10-06T08:21:24.142Z,17.50
2023-10-06T08:22:15.591Z,17.70
2023-10-06T08:23:08.637Z,17.67
2023-10-06T08:24:02.314Z,17.73
2023-10-06T08:24:54.522Z,17.76
2023-10-06T08:25:59.402Z,18.02
2023-10-06T08:26:53.349Z,17.91
2023-10-06T08:27:45.970Z,18.04
2023-10-06T08:28:36.805Z,18.26
2023-10-06T08:29:27.807Z,18.37
2023-10-06T08:30:21.003Z,18.23
2023-10-06T08:31:16.432Z,18.38
2023-10-06T08:32:07.794Z,18.35
2023-10-06T08:32:58.652Z,18.37
2023-10-06T08:33:49.450Z,18.09
2023-10-06T08:34:40.740Z,18.40
2023-10-06T08:35:31.845Z,18.44
2023-10-06T08:36:23.075Z,18.77
2023-10-06T08:37:15.542Z,18.46
2023-10-06T08:38:08.760Z,18.23
2023-10-06T08:38:59.864Z,18.13
2023-10-06T08:39:50.378Z,18.38
2023-10-06T08:40:45.455Z,18.43
2023-10-06T08:41:44.825Z,18.37
2023-10-06T08:42:37.567Z,18.40
2023-10-06T08:43:31.042Z,18.50
2023-10-06T08:44:24.245Z,18.33
2023-10-06T08:45:22.622Z,18.47
2023-10-06T08:46:14.790Z,18.19
2023-10-06T08:47:24.241Z,18.18
2023-10-06T08:48:21.125Z,18.29
2023-10-06T08:49:13.121Z,18.35
2023-10-06T08:50:04.325Z,18.38
2023-10-06T08:50:56.411Z,18.46
2023-10-06T08:51:50.947Z,18.56
2023-10-06T08:52:42.354Z,18.61
2023-10-06T08:53:36.602Z,18.56
2023-10-06T08:54:30.442Z,18.45
2023-10-06T08:55:22.904Z,18.74
2023-10-06T08:56:16.357Z,18.82
2023-10-06T08:57:07.354Z,18.86
2023-10-06T08:58:04.512Z,18.68
2023-10-06T08:58:55.771Z,18.72
2023-10-06T08:59:47.014Z,18.60
2023-10-06T09:00:38.362Z,18.70
2023-10-06T09:01:31.199Z,18.52
2023-10-06T09:02:22.767Z,18.53
2023-10-06T09:03:15.900Z,18.27
2023-10-06T09:04:10.698Z,18.13
2023-10-06T09:05:02.302Z,18.11
2023-10-06T09:05:55.689Z,18.06
2023-10-06T09:07:07.129Z,18.04
2023-10-06T09:08:08.827Z,18.17
2023-10-06T09:08:59.491Z,18.39
2023-10-06T09:09:51.107Z,18.39
2023-10-06T09:10:50.314Z,18.41
2023-10-06T09:11:42.541Z,18.39
2023-10-06T09:12:36.226Z,18.45
2023-10-06T09:13:28.091Z,18.47
2023-10-06T09:14:20.181Z,18.66
2023-10-06T09:15:17.311Z,18.61
2023-10-06T09:16:08.374Z,18.54
2023-10-06T09:17:02.816Z,18.27
2023-10-06T09:17:55.135Z,18.47
2023-10-06T09:19:01.695Z,18.58
2023-10-06T09:19:52.731Z,18.68
2023-10-06T09:20:43.531Z,18.63
2023-10-06T09:21:34.453Z,18.54
2023-10-06T09:22:31.327Z,18.45
2023-10-06T09:23:38.131Z,18.44
2023-10-06T09:24:29.092Z,18.37
2023-10-06T09:25:20.550Z,18.20
2023-10-06T09:26:13.926Z,18.09
2023-10-06T09:27:21.172Z,18.12
2023-10-06T09:28:18.176Z,18.30
2023-10-06T09:29:11.291Z,18.54
2023-10-06T09:30:23.817Z,18.47
2023-10-06T09:31:14.513Z,18.38
2023-10-06T09:32:23.152Z,18.47
2023-10-06T09:33:13.922Z,18.49
2023-10-06T09:34:10.243Z,18.51
2023-10-06T09:35:22.932Z,18.53
2023-10-06T09:36:36.194Z,18.57
2023-10-06T09:37:33.709Z,18.51
2023-10-06T09:38:27.856Z,18.35
2023-10-06T09:39:34.737Z,18.36
2023-10-06T09:40:25.445Z,18.54
2023-10-06T09:41:30.216Z,18.71
2023-10-06T09:42:20.675Z,18.89
2023-10-06T09:43:17.479Z,18.85
2023-10-06T09:44:13.731Z,18.96
2023-10-06T09:45:13.194Z,18.96
2023-10-06T09:46:10.306Z,19.07
2023-10-06T09:47:02.099Z,19.21
2023-10-06T09:48:00.705Z,18.95
2023-10-06T09:48:52.909Z,19.02
2023-10-06T09:49:46.816Z,19.07
2023-10-06T09:50:41.692Z,18.96
2023-10-06T09:51:34.394Z,18.72
2023-10-06T09:52:29.713Z,18.76
2023-10-06T09:53:21.564Z,18.81
2023-10-06T09:54:13.867Z,18.73
2023-10-06T09:55:05.634Z,18.80
2023-10-06T09:55:57.230Z,18.81
2023-10-06T09:56:48.306Z,18.80
2023-10-06T09:57:44.704Z,18.75
2023-10-06T09:58:36.586Z,18.85
2023-10-06T09:59:28.544Z,18.82
2023-10-06T10:00:20.841Z,18.74
2023-10-06T10:01:15.377Z,18.68
2023-10-06T10:02:09.749Z,18.50
2023-10-06T10:03:02.258Z,18.40
2023-10-06T10:03:53.758Z,18.46
2023-10-06T10:04:47.610Z,18.41
2023-10-06T10:05:41.316Z,18.37
2023-10-06T10:06:32.190Z,18.33
2023-10-06T10:07:24.533Z,18.47
2023-10-06T10:08:16.089Z,18.46
2023-10-06T10:09:09.333Z,18.50
2023-10-06T10:10:00.130Z,18.75
2023-10-06T10:10:53.541Z,18.87
2023-10-06T10:12:21.553Z,18.93
2023-10-06T10:13:50.385Z,19.12
2023-10-06T10:14:50.486Z,19.28
2023-10-06T10:16:27.207Z,19.37
2023-10-06T10:17:59.941Z,19.39
2023-10-06T10:19:00.080Z,19.34
2023-10-06T10:19:52.481Z,19.39
2023-10-06T10:20:47.579Z,19.13
2023-10-06T10:21:42.984Z,19.04
2023-10-06T10:22:35.142Z,19.07
2023-10-06T10:23:27.346Z,19.20
2023-10-06T10:25:25.308Z,19.34
2023-10-06T10:26:23.735Z,19.47
2023-10-06T10:27:18.481Z,19.33
2023-10-06T10:28:22.251Z,19.15
2023-10-06T10:29:18.565Z,19.12
2023-10-06T10:30:13.675Z,19.05
2023-10-06T10:31:06.342Z,19.17
2023-10-06T10:32:12.171Z,19.29
2023-10-06T10:33:08.443Z,19.19
2023-10-06T10:34:08.153Z,19.08
2023-10-06T10:35:15.615Z,18.97
2023-10-06T10:36:19.300Z,18.92
2023-10-06T10:37:13.434Z,19.07
2023-10-06T10:38:07.852Z,19.01
2023-10-06T10:39:20.118Z,19.22
2023-10-06T10:40:15.611Z,19.29
2023-10-06T10:41:09.767Z,19.24
2023-10-06T10:42:00.822Z,19.20
2023-10-06T10:43:06.338Z,19.12
2023-10-06T10:44:14.379Z,19.13
2023-10-06T10:45:31.860Z,19.04
2023-10-06T10:46:43.586Z,18.91
2023-10-06T10:47:34.730Z,18.91
2023-10-06T10:48:33.314Z,18.71
2023-10-06T10:49:24.293Z,18.74
2023-10-06T10:50:15.509Z,18.80
2023-10-06T10:51:13.632Z,18.85
2023-10-06T10:52:08.658Z,18.90
2023-10-06T10:53:00.117Z,18.94
2023-10-06T10:53:53.071Z,19.03
2023-10-06T10:54:44.348Z,19.18
2023-10-06T10:55:36.297Z,18.97
2023-10-06T10:56:44.212Z,19.11
2023-10-06T10:57:36.277Z,19.08
2023-10-06T10:58:45.696Z,19.02
2023-10-06T11:00:13.268Z,19.07
2023-10-06T11:01:24.230Z,18.94
2023-10-06T11:02:15.765Z,19.04
2023-10-06T11:03:07.206Z,19.06
2023-10-06T11:04:19.732Z,19.15
2023-10-06T11:05:11.347Z,19.08
2023-10-06T11:06:04.897Z,19.04
2023-10-06T11:06:56.938Z,19.01
2023-10-06T11:07:59.802Z,19.17
2023-10-06T11:08:52.328Z,19.34
2023-10-06T11:09:49.881Z,19.28
2023-10-06T11:10:40.942Z,19.29
2023-10-06T11:11:35.237Z,19.25
2023-10-06T11:12:27.229Z,19.34
2023-10-06T11:13:20.170Z,19.41
2023-10-06T11:14:13.342Z,19.60
2023-10-06T11:15:14.876Z,19.45
2023-10-06T11:16:06.082Z,19.45
2023-10-06T11:17:03.844Z,19.41
2023-10-06T11:17:59.887Z,19.41
2023-10-06T11:18:51.688Z,19.44
2023-10-06T11:19:42.638Z,19.44
2023-10-06T11:20:40.735Z,19.60
2023-10-06T11:21:34.218Z,19.62
2023-10-06T11:22:24.955Z,19.68
2023-10-06T11:23:15.867Z,19.68
2023-10-06T11:24:07.919Z,19.71
2023-10-06T11:25:04.006Z,19.69
2023-10-06T11:25:56.415Z,19.54
2023-10-06T11:26:48.088Z,19.52
2023-10-06T11:27:40.474Z,19.60
2023-10-06T11:28:42.829Z,19.64
2023-10-06T11:29:33.461Z,19.69
2023-10-06T11:30:27.458Z,19.78
2023-10-06T11:31:18.741Z,19.82
2023-10-06T11:32:09.652Z,19.87
2023-10-06T11:33:05.924Z,19.85
2023-10-06T11:33:57.243Z,19.73
2023-10-06T11:34:50.033Z,19.75
2023-10-06T11:35:42.104Z,19.71
2023-10-06T11:36:33.118Z,19.71
2023-10-06T11:37:26.270Z,19.73
2023-10-06T11:38:18.472Z,19.70
2023-10-06T11:39:09.942Z,19.59
2023-10-06T11:40:00.621Z,19.47
2023-10-06T11:40:51.460Z,19.42
2023-10-06T11:41:45.015Z,19.49
2023-10-06T11:42:39.187Z,19.51
2023-10-06T11:43:32.326Z,19.62
2023-10-06T11:44:23.063Z,19.56
2023-10-06T11:45:32.414Z,19.55
2023-10-06T11:46:25.412Z,19.48